Time;durP1;ratioP1;P1;durP2;ratioP2;P2;SDS_P1;SDS_P2;PMS_P1;PMS_P2;Temp;Humidity;BMP_temperature;BMP_pressure;BME280_temperature;BME280_humidity;BME280_pressure;Samples;Min_cycle;Max_cycle;Signal;HPM_P1;HPM_P2
2022/06/17 00:01:45;;;;;;;7.45;3.47;;;;;;;26.19;33.36;101608.94;5086448;28;20059;-69
2022/06/17 00:04:12;;;;;;;8.35;3.45;;;;;;;26.22;33.10;101607.34;5075673;28;20388;-69
2022/06/17 00:06:44;;;;;;;8.90;3.60;;;;;;;25.90;33.65;101603.53;5082185;28;20048;-69
2022/06/17 00:09:13;;;;;;;9.45;3.60;;;;;;;25.83;33.98;101604.31;5080250;28;20569;-69
2022/06/17 00:11:40;;;;;;;10.17;3.90;;;;;;;25.98;34.03;101596.72;5073288;28;20065;-69
2022/06/17 00:14:20;;;;;;;8.57;3.50;;;;;;;25.67;34.41;101606.63;5087934;28;20063;-69
2022/06/17 00:16:48;;;;;;;10.48;3.53;;;;;;;25.84;33.97;101602.31;5074737;28;20549;-69
2022/06/17 00:19:18;;;;;;;9.45;3.60;;;;;;;25.87;34.32;101605.16;5081042;28;20052;-69
2022/06/17 00:21:51;;;;;;;7.57;3.35;;;;;;;25.67;34.63;101595.34;5077531;28;20056;-69
2022/06/17 00:24:27;;;;;;;11.23;3.60;;;;;;;25.52;34.96;101600.09;5075968;28;20055;-68
2022/06/17 00:26:55;;;;;;;10.38;3.72;;;;;;;25.34;35.31;101598.31;5057981;28;20254;-68
2022/06/17 00:29:28;;;;;;;11.25;3.20;;;;;;;25.47;35.44;101596.84;5084953;28;20053;-69
2022/06/17 00:31:56;;;;;;;11.55;3.63;;;;;;;25.34;35.65;101590.69;5073723;28;20044;-69
2022/06/17 00:34:24;;;;;;;10.70;3.63;;;;;;;25.29;35.87;101584.59;5075190;28;20059;-68
2022/06/17 00:36:56;;;;;;;8.60;3.20;;;;;;;25.37;35.38;101589.09;5081474;28;20056;-68
2022/06/17 00:39:27;;;;;;;9.20;3.20;;;;;;;25.45;35.83;101596.44;5050745;28;20045;-68
2022/06/17 00:41:58;;;;;;;7.57;3.28;;;;;;;25.63;35.12;101605.00;5080035;28;20511;-69
2022/06/17 00:44:30;;;;;;;8.30;2.90;;;;;;;25.58;35.01;101594.09;5064801;28;20053;-69
2022/06/17 00:47:27;;;;;;;7.32;3.47;;;;;;;25.69;35.47;101601.41;5082525;28;20059;-68
2022/06/17 00:50:22;;;;;;;9.88;3.20;;;;;;;25.44;35.46;101603.25;5049942;28;20059;-69
2022/06/17 00:52:57;;;;;;;7.35;3.00;;;;;;;25.24;35.65;101597.06;5071077;28;20045;-69
2022/06/17 00:55:28;;;;;;;7.45;3.28;;;;;;;25.22;35.63;101604.28;5057953;28;20052;-69
2022/06/17 00:57:57;;;;;;;6.65;2.97;;;;;;;25.16;36.38;101601.00;5055433;28;20075;-68
2022/06/17 01:00:26;;;;;;;6.13;2.75;;;;;;;25.12;36.13;101597.34;5040189;28;20053;-68
2022/06/17 01:02:58;;;;;;;9.68;3.20;;;;;;;25.22;36.05;101598.63;5083395;28;20045;-69
2022/06/17 01:05:38;;;;;;;7.85;3.10;;;;;;;25.32;36.16;101606.38;5054133;28;20052;-68
2022/06/17 01:11:17;;;;;;;7.78;3.00;;;;;;;25.47;35.89;101597.63;5073197;28;20059;-67
2022/06/17 01:13:48;;;;;;;10.10;3.20;;;;;;;25.20;36.46;101603.84;5022664;28;20584;-69
2022/06/17 01:16:17;;;;;;;7.97;2.97;;;;;;;25.27;36.55;101603.91;5063922;28;20052;-69
2022/06/17 01:18:46;;;;;;;11.98;3.00;;;;;;;25.08;36.80;101613.44;5024673;28;20052;-69
2022/06/17 01:21:36;;;;;;;8.05;3.20;;;;;;;24.83;37.63;101606.75;5072208;28;20071;-67
2022/06/17 01:24:07;;;;;;;10.80;3.45;;;;;;;25.11;37.32;101606.19;5067291;28;20059;-68
2022/06/17 01:26:34;;;;;;;10.52;3.47;;;;;;;25.08;37.55;101607.81;5084766;28;20143;-68
2022/06/17 01:29:02;;;;;;;9.60;3.08;;;;;;;25.00;37.66;101611.75;5086822;28;20045;-69
2022/06/17 01:31:31;;;;;;;7.50;3.30;;;;;;;24.88;37.53;101603.59;5048598;28;20056;-69
2022/06/17 01:33:59;;;;;;;7.22;3.10;;;;;;;24.98;37.80;101607.72;5058681;28;20049;-69
2022/06/17 01:36:27;;;;;;;6.45;3.30;;;;;;;24.68;38.58;101615.44;5068270;28;20036;-68
2022/06/17 01:38:57;;;;;;;9.80;3.33;;;;;;;24.44;38.75;101616.81;5063748;28;20055;-69
2022/06/17 01:41:26;;;;;;;6.60;3.08;;;;;;;24.61;38.58;101623.81;5088189;28;20048;-69
2022/06/17 01:43:55;;;;;;;;;;;;;;;24.75;38.35;101619.19;5048078;28;20043;-68
2022/06/17 01:46:26;;;;;;;11.15;3.90;;;;;;;24.56;39.10;101621.34;5062808;28;20520;-69
2022/06/17 01:48:59;;;;;;;5.80;2.63;;;;;;;24.64;38.75;101623.84;5044279;28;20059;-69
2022/06/17 01:51:27;;;;;;;13.23;3.65;;;;;;;24.54;39.11;101624.56;5043881;28;20051;-70
2022/06/17 01:53:58;;;;;;;8.27;3.33;;;;;;;24.57;38.92;101622.97;5055108;28;20049;-69
2022/06/17 01:56:28;;;;;;;;;;;;;;;24.56;38.83;101632.63;5052240;28;20055;-69
2022/06/17 01:59:01;;;;;;;8.38;3.10;;;;;;;24.55;38.69;101631.81;5045341;28;19920;-69
2022/06/17 02:01:32;;;;;;;7.28;3.22;;;;;;;24.72;38.85;101641.69;5025261;28;20053;-68
2022/06/17 02:04:08;;;;;;;9.93;3.20;;;;;;;24.71;38.46;101643.69;5069020;28;20504;-69
2022/06/17 02:07:00;;;;;;;6.90;3.13;;;;;;;24.48;39.32;101649.44;5050378;28;20053;-70
2022/06/17 02:09:27;;;;;;;7.30;3.08;;;;;;;24.41;39.30;101642.91;5046044;28;20055;-69
2022/06/17 02:11:55;;;;;;;6.53;3.30;;;;;;;24.56;38.87;101638.25;5085198;28;20059;-69
2022/06/17 02:14:24;;;;;;;9.57;3.15;;;;;;;24.52;39.40;101643.84;5087668;28;20056;-69
2022/06/17 02:17:07;;;;;;;10.77;3.00;;;;;;;24.58;38.84;101662.03;5078606;28;20059;-69
2022/06/17 02:19:43;;;;;;;7.25;3.20;;;;;;;24.39;39.45;101665.84;5042743;28;20049;-69
2022/06/17 02:22:25;;;;;;;8.50;2.80;;;;;;;24.53;39.23;101660.38;5060087;28;20079;-69
2022/06/17 02:25:08;;;;;;;6.32;2.85;;;;;;;24.53;39.34;101656.72;5042246;28;20476;-69
2022/06/17 02:27:36;;;;;;;6.97;3.08;;;;;;;24.42;39.63;101665.09;5038903;28;20408;-69
2022/06/17 02:30:05;;;;;;;8.43;3.03;;;;;;;24.47;39.39;101673.19;5067308;28;21509;-69
2022/06/17 02:32:33;;;;;;;8.18;3.08;;;;;;;24.62;39.24;101665.69;5067205;28;20052;-69
2022/06/17 02:35:29;;;;;;;7.05;3.10;;;;;;;24.75;39.00;101660.63;5043823;28;20052;-69
2022/06/17 02:37:57;;;;;;;8.60;3.05;;;;;;;24.75;39.14;101664.28;5051773;28;20063;-69
2022/06/17 02:40:39;;;;;;;11.20;3.35;;;;;;;24.80;38.72;101668.75;5075684;28;20195;-68
2022/06/17 02:43:18;;;;;;;13.02;3.65;;;;;;;24.45;39.31;101669.13;5060952;28;20040;-69
2022/06/17 02:45:51;;;;;;;6.75;3.15;;;;;;;24.56;39.36;101666.44;5027351;28;20050;-69
2022/06/17 02:48:24;;;;;;;9.95;3.55;;;;;;;24.65;39.16;101670.56;5051773;28;20063;-69
2022/06/17 02:50:55;;;;;;;6.28;2.83;;;;;;;24.80;38.95;101671.56;5064564;28;20052;-69
2022/06/17 02:53:32;;;;;;;8.30;3.10;;;;;;;24.76;39.40;101665.09;5069899;28;20063;-69
2022/06/17 02:56:03;;;;;;;6.82;3.10;;;;;;;24.75;39.35;101663.44;5038020;28;20403;-69
2022/06/17 02:58:56;;;;;;;8.40;3.05;;;;;;;24.58;39.56;101667.69;5046585;28;20055;-64
2022/06/17 03:01:26;;;;;;;6.28;3.13;;;;;;;24.65;39.33;101664.94;5069445;28;20056;-63
2022/06/17 03:04:20;;;;;;;9.32;3.20;;;;;;;24.71;39.28;101673.88;5059286;28;20403;-63
2022/06/17 03:06:49;;;;;;;6.82;3.22;;;;;;;24.56;39.71;101675.69;5083463;28;20048;-63
2022/06/17 03:09:25;;;;;;;6.45;2.83;;;;;;;24.30;40.22;101665.31;5066413;28;20052;-63
2022/06/17 03:12:04;;;;;;;6.30;3.05;;;;;;;24.34;40.53;101669.00;5073248;28;20060;-63
2022/06/17 03:14:47;;;;;;;9.15;3.40;;;;;;;24.41;40.46;101660.63;5076662;28;20051;-63
2022/06/17 03:17:17;;;;;;;7.90;3.30;;;;;;;24.42;40.53;101662.28;5082130;28;20055;-64
2022/06/17 03:19:45;;;;;;;;;;;;;;;24.12;41.01;101658.66;5069838;28;20044;-64
2022/06/17 03:22:13;;;;;;;8.60;3.10;;;;;;;24.13;41.25;101651.03;5069796;28;19927;-63
2022/06/17 03:25:00;;;;;;;8.93;3.50;;;;;;;24.11;40.97;101645.75;5068615;28;20052;-64
2022/06/17 03:27:35;;;;;;;13.88;3.38;;;;;;;24.23;40.71;101644.72;5046171;28;20044;-65
2022/06/17 03:30:04;;;;;;;6.80;3.45;;;;;;;24.23;40.76;101656.78;5065648;28;20079;-64
2022/06/17 03:32:38;;;;;;;9.55;3.20;;;;;;;24.21;41.01;101638.66;5034096;28;20056;-64
2022/06/17 03:35:09;;;;;;;11.20;3.47;;;;;;;24.06;41.41;101640.47;5058873;28;20044;-63
2022/06/17 03:37:47;;;;;;;6.93;3.35;;;;;;;23.93;41.74;101633.44;5051477;28;20048;-64
2022/06/17 03:40:21;;;;;;;8.30;3.25;;;;;;;24.12;41.38;101629.69;5045028;28;20057;-64
2022/06/17 03:43:04;;;;;;;10.57;3.30;;;;;;;24.19;41.29;101622.16;5083531;28;20056;-64
2022/06/17 03:45:36;;;;;;;10.25;3.30;;;;;;;24.05;41.41;101615.53;5046611;28;20045;-64
2022/06/17 03:48:14;;;;;;;10.25;3.45;;;;;;;23.99;41.80;101636.75;5070383;28;20059;-63
2022/06/17 03:50:45;;;;;;;9.60;4.15;;;;;;;23.53;42.96;101652.97;5067148;28;20060;-63
2022/06/17 03:53:28;;;;;;;11.25;3.95;;;;;;;23.77;42.66;101649.69;5053828;28;20055;-63
2022/06/17 03:56:02;;;;;;;8.57;3.70;;;;;;;23.69;42.73;101656.44;5078947;28;20510;-64
2022/06/17 03:58:33;;;;;;;8.13;3.55;;;;;;;23.59;42.62;101671.13;5036240;28;20408;-63
2022/06/17 04:01:05;;;;;;;9.70;3.33;;;;;;;23.68;42.21;101671.66;5057181;28;20048;-63
2022/06/17 04:03:34;;;;;;;7.43;3.42;;;;;;;23.39;42.72;101678.88;5070905;28;20071;-65
2022/06/17 04:06:18;;;;;;;10.45;3.40;;;;;;;23.57;42.15;101667.09;5045774;28;20051;-64
2022/06/17 04:08:56;;;;;;;7.75;3.42;;;;;;;23.64;42.25;101661.56;5049962;28;20049;-64
2022/06/17 04:11:30;;;;;;;11.38;4.13;;;;;;;23.82;41.76;101657.00;5059214;28;20048;-63
2022/06/17 04:14:00;;;;;;;7.00;3.40;;;;;;;23.97;41.36;101654.00;5071262;28;20056;-63
2022/06/17 04:16:44;;;;;;;8.27;3.70;;;;;;;23.85;41.44;101659.06;5047740;28;20056;-65
2022/06/17 04:19:21;;;;;;;9.88;3.28;;;;;;;23.69;41.57;101648.00;5047919;28;20052;-63
2022/06/17 04:21:56;;;;;;;9.52;3.15;;;;;;;23.86;41.22;101649.41;5064351;28;20044;-64
2022/06/17 04:24:27;;;;;;;8.60;3.10;;;;;;;23.56;41.48;101666.25;5072055;28;20046;-64
2022/06/17 04:27:17;;;;;;;9.00;2.95;;;;;;;23.60;41.47;101655.06;5060127;28;20060;-63
2022/06/17 04:29:48;;;;;;;11.32;4.18;;;;;;;23.73;41.18;101670.56;5049310;28;20052;-64
2022/06/17 04:32:24;;;;;;;11.48;3.60;;;;;;;23.56;41.77;101668.25;5065381;28;20056;-63
2022/06/17 04:34:52;;;;;;;9.93;3.38;;;;;;;23.53;41.75;101669.03;5071426;28;20052;-63
2022/06/17 04:37:20;;;;;;;12.27;3.25;;;;;;;23.84;41.22;101661.06;5061591;28;20067;-63
2022/06/17 04:40:23;;;;;;;8.43;2.90;;;;;;;23.15;42.15;101669.97;5048646;28;20061;-64
2022/06/17 04:43:33;;;;;;;11.52;3.45;;;;;;;23.67;41.44;101675.69;5049609;28;20047;-64
2022/06/17 04:46:12;;;;;;;12.30;3.08;;;;;;;23.79;41.32;101671.81;5060431;28;20032;-65
2022/06/17 04:48:41;;;;;;;7.20;3.38;;;;;;;23.61;41.14;101673.56;5061092;28;20053;-64
2022/06/17 04:51:10;;;;;;;7.63;3.38;;;;;;;23.65;41.35;101674.44;5060417;28;20063;-65
2022/06/17 04:53:42;;;;;;;7.22;3.10;;;;;;;23.57;41.55;101679.16;5086823;28;20040;-65
2022/06/17 04:56:31;;;;;;;8.18;3.00;;;;;;;23.72;41.57;101678.16;5044773;28;20061;-63
2022/06/17 04:59:24;;;;;;;8.82;3.30;;;;;;;23.53;41.75;101672.66;5065891;28;20051;-65
2022/06/17 05:01:52;;;;;;;5.50;2.83;;;;;;;23.58;41.41;101665.88;5057257;28;20048;-64
2022/06/17 05:04:41;;;;;;;6.72;2.80;;;;;;;23.33;41.98;101671.09;5039417;28;20048;-64
2022/06/17 05:07:10;;;;;;;7.63;3.38;;;;;;;23.35;42.25;101668.72;5086969;28;20058;-63
2022/06/17 05:09:43;;;;;;;7.30;2.97;;;;;;;23.40;42.00;101666.41;5085161;28;20052;-64
2022/06/17 05:12:34;;;;;;;7.68;2.78;;;;;;;23.63;41.62;101668.38;5065041;28;20048;-65
2022/06/17 05:15:17;;;;;;;7.82;2.95;;;;;;;23.47;42.00;101662.13;5081518;28;20451;-63
2022/06/17 05:17:50;;;;;;;6.22;3.00;;;;;;;23.71;41.93;101664.50;5065009;28;20064;-64
2022/06/17 05:20:26;;;;;;;6.65;3.10;;;;;;;24.13;41.14;101663.09;5050440;28;20055;-63
2022/06/17 05:22:58;;;;;;;10.02;3.63;;;;;;;23.62;41.41;101661.13;5049732;28;20063;-63
2022/06/17 05:25:30;;;;;;;8.95;3.22;;;;;;;23.58;41.89;101657.44;5046995;28;20052;-64
2022/06/17 05:27:58;;;;;;;10.32;3.50;;;;;;;23.93;41.54;101655.97;5033387;28;20056;-63
2022/06/17 05:30:31;;;;;;;10.23;3.35;;;;;;;24.07;41.28;101650.56;5064645;28;20408;-63
2022/06/17 05:32:58;;;;;;;15.18;3.58;;;;;;;24.24;40.89;101643.53;5067833;28;20044;-64
2022/06/17 05:35:26;;;;;;;8.73;3.20;;;;;;;24.12;41.05;101638.13;5075986;28;20044;-64
2022/06/17 05:37:54;;;;;;;13.93;3.30;;;;;;;24.03;41.21;101640.44;5043383;28;20055;-63
2022/06/17 05:40:21;;;;;;;14.63;3.25;;;;;;;23.97;41.59;101645.53;5062563;28;20054;-70
2022/06/17 05:42:52;;;;;;;6.05;2.97;;;;;;;23.75;41.84;101646.44;5066033;28;20052;-67
2022/06/17 05:45:23;;;;;;;7.72;3.05;;;;;;;23.66;42.21;101642.31;5067113;28;20049;-68
2022/06/17 05:48:25;;;;;;;12.25;3.35;;;;;;;24.00;41.74;101641.19;5057096;28;20052;-68
2022/06/17 05:51:06;;;;;;;5.72;2.90;;;;;;;24.41;40.79;101640.91;5061505;28;20048;-69
2022/06/17 05:53:46;;;;;;;8.60;3.38;;;;;;;24.77;40.13;101641.34;5051946;28;20487;-69
2022/06/17 05:56:31;;;;;;;8.15;3.15;;;;;;;24.72;40.49;101653.78;5048892;28;20051;-69
2022/06/17 05:58:58;;;;;;;7.88;3.30;;;;;;;24.59;39.86;101649.56;5061188;28;20072;-69
2022/06/17 06:01:26;;;;;;;7.75;2.92;;;;;;;24.60;40.36;101656.81;5060585;28;20044;-70
2022/06/17 06:03:55;;;;;;;8.38;2.92;;;;;;;24.50;40.55;101657.50;5065712;28;20043;-70
2022/06/17 06:06:23;;;;;;;9.95;3.22;;;;;;;24.30;40.46;101648.41;5065076;28;20475;-69
2022/06/17 06:08:54;;;;;;;7.57;3.50;;;;;;;24.82;39.98;101653.06;5035024;28;20053;-70
2022/06/17 06:11:22;;;;;;;8.95;2.80;;;;;;;25.11;39.68;101649.31;5073283;28;20044;-70
2022/06/17 06:13:50;;;;;;;8.35;2.83;;;;;;;25.09;39.34;101645.28;5044141;28;20045;-70
2022/06/17 06:16:17;;;;;;;12.73;3.10;;;;;;;24.96;39.55;101636.31;5032587;28;20534;-69
2022/06/17 06:18:56;;;;;;;10.50;3.17;;;;;;;24.93;39.66;101627.81;5043591;28;20053;-70
2022/06/17 06:21:26;;;;;;;12.55;2.88;;;;;;;24.70;39.80;101625.19;5067755;28;20384;-71
2022/06/17 06:23:56;;;;;;;9.77;2.97;;;;;;;24.62;40.20;101629.06;5046562;28;20059;-70
2022/06/17 06:26:30;;;;;;;9.57;3.13;;;;;;;24.95;39.76;101626.19;5035371;28;20052;-69
2022/06/17 06:29:15;;;;;;;12.20;3.75;;;;;;;25.05;39.38;101617.06;5059679;28;20056;-69
2022/06/17 06:31:44;;;;;;;11.23;3.30;;;;;;;25.20;38.80;101621.59;5040142;28;20053;-69
2022/06/17 06:34:31;;;;;;;9.73;3.30;;;;;;;25.24;38.57;101611.16;5030681;28;20063;-73
2022/06/17 06:36:58;;;;;;;12.80;3.40;;;;;;;25.39;38.11;101612.09;5031870;28;20045;-74
2022/06/17 06:39:29;;;;;;;8.30;3.88;;;;;;;25.40;38.42;101610.91;5044221;28;20040;-73
2022/06/17 06:41:59;;;;;;;9.27;3.35;;;;;;;25.44;38.36;101611.72;5071506;28;20059;-75
2022/06/17 06:44:27;;;;;;;14.32;3.78;;;;;;;25.77;37.85;101614.34;5053225;28;20053;-74
2022/06/17 06:47:06;;;;;;;8.27;3.00;;;;;;;25.54;38.97;101625.09;5069270;28;20041;-73
2022/06/17 06:50:10;;;;;;;8.93;3.30;;;;;;;25.83;38.47;101611.97;5056105;28;20052;-75
2022/06/17 06:52:37;;;;;;;8.18;3.50;;;;;;;25.69;38.44;101617.53;5042491;28;20043;-76
2022/06/17 06:55:10;;;;;;;10.68;3.42;;;;;;;25.49;38.56;101619.81;5061361;28;20048;-75
2022/06/17 06:57:45;;;;;;;12.13;3.42;;;;;;;25.52;38.76;101613.41;5043489;28;20419;-75
2022/06/17 07:00:22;;;;;;;10.20;3.47;;;;;;;25.93;37.86;101606.38;5079055;28;20048;-75
2022/06/17 07:02:50;;;;;;;12.80;3.30;;;;;;;26.04;37.66;101607.25;5053494;28;20049;-75
2022/06/17 07:05:17;;;;;;;8.18;3.28;;;;;;;25.70;38.63;101622.75;5055230;28;20047;-76
2022/06/17 07:07:45;;;;;;;14.48;3.70;;;;;;;25.58;38.70;101625.91;5066985;28;20059;-71
2022/06/17 07:10:16;;;;;;;10.52;3.50;;;;;;;25.78;38.38;101630.09;5068962;28;20056;-75
2022/06/17 07:12:44;;;;;;;8.98;3.92;;;;;;;25.91;38.05;101624.91;5083273;28;20059;-75
2022/06/17 07:15:12;;;;;;;10.70;4.45;;;;;;;26.16;38.05;101629.50;5069761;28;20376;-74
2022/06/17 07:17:40;;;;;;;10.75;3.80;;;;;;;25.64;38.60;101643.28;5048548;28;20111;-74
2022/06/17 07:20:15;;;;;;;11.02;3.20;;;;;;;25.85;38.76;101638.59;5072913;28;20063;-72
2022/06/17 07:22:42;;;;;;;8.90;3.30;;;;;;;26.07;38.79;101639.53;5057671;28;21738;-73
2022/06/17 07:25:13;;;;;;;10.45;3.33;;;;;;;26.26;38.09;101630.72;5079086;28;20052;-73
2022/06/17 07:27:41;;;;;;;10.48;3.13;;;;;;;26.38;37.79;101636.84;5068200;28;20045;-72
2022/06/17 07:30:20;;;;;;;7.60;3.00;;;;;;;26.49;37.90;101634.03;5073234;28;20533;-77
2022/06/17 07:32:50;;;;;;;12.68;2.80;;;;;;;26.69;37.05;101620.41;5055710;28;20049;-75
2022/06/17 07:35:20;;;;;;;14.52;6.28;;;;;;;26.98;36.73;101624.88;5071320;28;20060;-75
2022/06/17 07:40:47;;;;;;;14.25;3.53;;;;;;;27.59;35.36;101633.78;5070133;28;20048;-71
2022/06/17 07:43:17;;;;;;;12.25;3.65;;;;;;;27.92;34.44;101648.66;5041034;28;20063;-70
2022/06/17 07:45:45;;;;;;;17.25;3.67;;;;;;;27.72;34.48;101657.59;5064911;28;20442;-70
2022/06/17 07:48:14;;;;;;;12.13;4.05;;;;;;;28.13;34.61;101652.25;5081379;28;20052;-70
2022/06/17 07:50:43;;;;;;;12.23;3.55;;;;;;;27.98;34.41;101670.53;5056123;28;20052;-71
2022/06/17 07:53:11;;;;;;;10.40;3.25;;;;;;;28.20;33.54;101677.72;5077796;28;20052;-71
2022/06/17 07:55:40;;;;;;;9.80;3.50;;;;;;;28.41;33.23;101671.16;5060800;28;20048;-70
2022/06/17 07:58:10;;;;;;;15.07;3.03;;;;;;;28.49;33.60;101678.38;5071557;28;20049;-70
2022/06/17 08:00:41;;;;;;;7.85;2.83;;;;;;;28.48;33.09;101682.47;5082632;28;20048;-70
2022/06/17 08:03:16;;;;;;;7.20;2.90;;;;;;;28.68;32.82;101678.72;5070125;28;20048;-70
2022/06/17 08:05:48;;;;;;;12.38;3.25;;;;;;;28.40;33.08;101678.84;5069470;28;20526;-69
2022/06/17 08:08:23;;;;;;;9.88;3.00;;;;;;;28.71;32.32;101674.28;5090244;28;20048;-71
2022/06/17 08:10:56;;;;;;;9.85;3.10;;;;;;;28.77;32.79;101673.41;5060130;28;20060;-70
2022/06/17 08:13:24;;;;;;;7.25;2.40;;;;;;;28.66;32.48;101677.56;5071438;28;20057;-71
2022/06/17 08:15:55;;;;;;;7.03;2.63;;;;;;;28.68;32.09;101687.25;5057824;28;20048;-70
2022/06/17 08:18:23;;;;;;;7.93;2.85;;;;;;;28.61;32.46;101690.13;5082700;28;20167;-71
2022/06/17 08:20:50;;;;;;;12.43;2.70;;;;;;;28.76;31.48;101688.00;5055699;28;20053;-72
2022/06/17 08:23:21;;;;;;;5.60;2.58;;;;;;;28.42;32.31;101687.75;5086055;28;20051;-71
2022/06/17 08:25:49;;;;;;;8.50;2.45;;;;;;;28.53;32.09;101680.03;5077567;28;20044;-71
2022/06/17 08:28:17;;;;;;;12.50;3.10;;;;;;;28.64;31.85;101672.28;5077223;28;20059;-72
2022/06/17 08:30:53;;;;;;;11.70;2.90;;;;;;;28.46;31.91;101670.72;5085057;28;20053;-69
2022/06/17 08:33:29;;;;;;;13.90;4.25;;;;;;;28.41;32.23;101671.97;5078566;28;20051;-69
2022/06/17 08:36:18;;;;;;;31.50;3.78;;;;;;;28.92;32.62;101671.31;5044184;28;20053;-70
2022/06/17 08:38:46;;;;;;;;;;;;;;;29.11;31.41;101667.94;5028385;28;20050;-69
2022/06/17 08:41:24;;;;;;;12.10;3.03;;;;;;;29.67;30.28;101667.47;5088224;28;19925;-69
2022/06/17 08:44:19;;;;;;;11.68;2.95;;;;;;;29.62;29.98;101665.03;5069531;28;20045;-69
2022/06/17 08:47:06;;;;;;;10.90;3.15;;;;;;;28.76;31.21;101654.81;5045340;28;20114;-69
2022/06/17 08:49:55;;;;;;;6.97;2.88;;;;;;;29.15;31.41;101665.88;5089923;28;20067;-65
2022/06/17 08:52:34;;;;;;;11.15;2.53;;;;;;;29.39;31.03;101653.53;5068772;28;20049;-63
2022/06/17 08:55:12;;;;;;;11.52;2.78;;;;;;;29.02;30.41;101656.22;5079562;28;20044;-69
2022/06/17 08:57:59;;;;;;;11.10;3.10;;;;;;;29.20;30.47;101647.63;5071979;28;20048;-69
2022/06/17 09:01:26;;;;;;;9.02;2.92;;;;;;;29.56;30.30;101643.22;5032498;28;20052;-70
2022/06/17 09:03:58;;;;;;;9.73;2.60;;;;;;;29.38;30.15;101649.06;5052984;28;20416;-69
2022/06/17 09:06:52;;;;;;;8.05;2.92;;;;;;;29.82;29.66;101646.22;5059958;28;20059;-69
2022/06/17 09:09:44;;;;;;;8.50;2.75;;;;;;;29.40;29.90;101645.78;5083237;28;20052;-69
2022/06/17 09:12:49;;;;;;;9.30;2.65;;;;;;;29.37;30.41;101643.81;5054310;28;20052;-70
2022/06/17 09:15:34;;;;;;;12.05;3.00;;;;;;;29.69;29.10;101650.03;5065855;28;20040;-69
2022/06/17 09:18:28;;;;;;;7.72;2.47;;;;;;;29.38;28.03;101646.22;5051846;28;20059;-69
2022/06/17 09:21:12;;;;;;;7.13;2.47;;;;;;;29.23;28.31;101643.94;5083136;28;20056;-69
2022/06/17 09:23:41;;;;;;;8.52;2.20;;;;;;;29.66;28.66;101645.94;5072296;28;21063;-69
2022/06/17 09:26:25;;;;;;;10.13;2.47;;;;;;;30.04;27.85;101649.59;5058193;28;20061;-70
2022/06/17 09:29:00;;;;;;;9.30;2.50;;;;;;;29.87;27.80;101639.25;5065195;28;20061;-69
2022/06/17 09:32:07;;;;;;;10.32;2.20;;;;;;;29.88;27.18;101640.06;5053615;28;20047;-70
2022/06/17 09:34:56;;;;;;;15.05;2.80;;;;;;;29.98;28.09;101645.63;5044649;28;20052;-70
2022/06/17 09:37:38;;;;;;;10.57;2.92;;;;;;;30.31;27.76;101642.00;5067352;28;20525;-69
2022/06/17 09:40:16;;;;;;;10.48;2.53;;;;;;;29.94;28.05;101642.03;5063636;28;20048;-70
2022/06/17 09:42:54;;;;;;;6.70;2.38;;;;;;;29.77;28.26;101643.03;5071545;28;20063;-69
2022/06/17 09:45:34;;;;;;;9.60;2.53;;;;;;;29.95;28.51;101642.84;5039297;28;20411;-70
2022/06/17 09:48:12;;;;;;;8.77;2.40;;;;;;;30.06;28.05;101640.69;5037597;28;20059;-70
2022/06/17 09:51:06;;;;;;;11.60;2.75;;;;;;;30.07;28.02;101647.97;5036767;28;20055;-70
2022/06/17 09:53:51;;;;;;;7.78;2.30;;;;;;;29.83;28.79;101644.19;5015152;28;20065;-70
2022/06/17 09:56:30;;;;;;;6.50;2.47;;;;;;;29.91;28.57;101639.22;5080668;28;20056;-70
2022/06/17 09:58:57;;;;;;;7.97;2.78;;;;;;;30.20;28.07;101631.97;5049920;28;20053;-69
2022/06/17 10:01:25;;;;;;;8.00;2.85;;;;;;;30.03;27.79;101639.47;5078849;28;20052;-69
2022/06/17 10:03:52;;;;;;;11.32;2.78;;;;;;;29.95;27.79;101632.28;5058969;28;20048;-69
2022/06/17 10:06:34;;;;;;;7.47;2.20;;;;;;;29.99;27.57;101635.88;5083134;28;20056;-70
2022/06/17 10:09:36;;;;;;;7.35;2.28;;;;;;;30.06;27.35;101629.31;5067127;28;20407;-71
2022/06/17 10:12:06;;;;;;;6.47;2.45;;;;;;;30.06;27.39;101637.84;5073116;28;20056;-71
2022/06/17 10:14:47;;;;;;;8.05;2.53;;;;;;;29.76;27.25;101636.53;5087303;28;20060;-70
2022/06/17 10:20:18;;;;;;;4.82;1.90;;;;;;;29.72;27.05;101635.78;5043771;28;20056;-70
2022/06/17 10:23:06;;;;;;;7.10;2.38;;;;;;;29.70;26.53;101626.06;5060643;28;20052;-64
2022/06/17 10:26:00;;;;;;;12.02;2.45;;;;;;;29.99;26.35;101615.19;5063360;28;20441;-73
2022/06/17 10:28:39;;;;;;;7.15;2.10;;;;;;;29.68;26.97;101620.00;5081295;28;20049;-74
2022/06/17 10:31:29;;;;;;;9.95;3.00;;;;;;;30.01;27.27;101616.38;5082614;28;20164;-72
2022/06/17 10:33:58;;;;;;;7.20;2.80;;;;;;;30.20;27.03;101626.28;5056708;28;20051;-70
2022/06/17 10:36:26;;;;;;;5.65;2.72;;;;;;;30.04;26.24;101632.56;5050667;28;20717;-77
2022/06/17 10:38:54;;;;;;;7.05;2.20;;;;;;;29.97;26.10;101618.44;5048319;28;20051;-79
2022/06/17 10:41:21;;;;;;;8.30;2.42;;;;;;;30.12;26.69;101625.56;5047445;28;20052;-73
2022/06/17 10:43:50;;;;;;;4.88;2.40;;;;;;;30.36;26.58;101618.78;5062053;28;20358;-74
2022/06/17 10:46:22;;;;;;;8.00;2.63;;;;;;;30.38;26.27;101615.50;5052392;28;20048;-67
2022/06/17 10:48:57;;;;;;;8.68;2.90;;;;;;;30.31;25.52;101619.25;5067569;28;20312;-73
2022/06/17 10:51:26;;;;;;;7.97;2.83;;;;;;;30.33;25.22;101622.50;5064848;28;20406;-74
2022/06/17 10:53:59;;;;;;;7.68;2.88;;;;;;;30.51;25.11;101623.03;5061412;28;20051;-74
2022/06/17 10:56:43;;;;;;;6.07;2.60;;;;;;;30.15;26.06;101627.56;5070605;28;20040;-74
2022/06/17 10:59:11;;;;;;;7.78;2.65;;;;;;;30.43;25.81;101626.41;5071931;28;20055;-72
2022/06/17 11:01:50;;;;;;;14.30;7.45;;;;;;;30.05;25.14;101622.81;5063971;28;20075;-71
2022/06/17 11:04:22;;;;;;;6.93;4.05;;;;;;;29.95;25.98;101625.78;5075833;28;20052;-72
2022/06/17 11:06:53;;;;;;;6.85;3.00;;;;;;;30.28;25.70;101625.81;5059504;28;20047;-71
2022/06/17 11:09:28;;;;;;;9.68;2.65;;;;;;;30.42;25.70;101625.63;5067210;28;20468;-70
2022/06/17 11:12:04;;;;;;;9.52;5.28;;;;;;;30.53;25.47;101631.94;5064115;28;20053;-72
2022/06/17 11:14:53;;;;;;;8.88;3.15;;;;;;;30.29;25.25;101627.41;5029915;28;20045;-73
2022/06/17 11:17:33;;;;;;;6.15;2.72;;;;;;;30.19;26.06;101633.19;5061891;28;20044;-71
2022/06/17 11:20:05;;;;;;;6.88;2.45;;;;;;;30.42;26.00;101625.63;5082423;28;20052;-73
2022/06/17 11:23:05;;;;;;;9.80;4.35;;;;;;;30.73;25.72;101623.53;5045838;28;20048;-75
2022/06/17 11:25:32;;;;;;;8.40;4.40;;;;;;;30.85;25.89;101611.59;5062728;28;20063;-74
2022/06/17 11:28:25;;;;;;;6.68;2.72;;;;;;;30.74;26.04;101614.56;5040582;28;20063;-76
2022/06/17 11:30:58;;;;;;;8.80;3.55;;;;;;;31.00;25.41;101610.09;5079606;28;20067;-73
2022/06/17 11:33:27;;;;;;;9.02;4.25;;;;;;;31.16;25.42;101607.41;5073530;28;20043;-74
2022/06/17 11:36:00;;;;;;;11.00;3.30;;;;;;;31.36;25.33;101610.34;5087002;28;20055;-74
2022/06/17 11:38:31;;;;;;;9.38;2.45;;;;;;;31.10;25.49;101596.94;5059332;28;20048;-74
2022/06/17 11:41:21;;;;;;;8.82;2.50;;;;;;;31.13;25.90;101594.03;5069382;28;20056;-74
2022/06/17 11:43:50;;;;;;;7.07;2.50;;;;;;;31.24;26.10;101593.84;5070965;28;20044;-75
2022/06/17 11:46:20;;;;;;;10.02;4.10;;;;;;;31.47;25.63;101585.31;5047702;28;20063;-75
2022/06/17 11:48:53;;;;;;;5.43;2.80;;;;;;;31.62;25.26;101578.09;5075312;28;20684;-75
2022/06/17 11:51:26;;;;;;;10.63;3.22;;;;;;;31.56;25.50;101583.50;5053595;28;20040;-74
2022/06/17 11:53:57;;;;;;;12.02;2.67;;;;;;;31.52;25.52;101579.13;5073527;28;20060;-74
2022/06/17 11:56:30;;;;;;;8.05;3.10;;;;;;;31.66;25.61;101584.53;5053645;28;20478;-73
2022/06/17 11:59:16;;;;;;;9.48;3.83;;;;;;;31.50;25.39;101573.88;5083712;28;20055;-74
2022/06/17 12:01:55;;;;;;;5.35;2.10;;;;;;;31.26;25.73;101571.44;5063832;28;20251;-74
2022/06/17 12:04:41;;;;;;;7.90;1.90;;;;;;;31.08;25.41;101565.25;5075834;28;20059;-74
2022/06/17 12:07:29;;;;;;;7.03;1.85;;;;;;;31.47;25.28;101566.19;5062090;28;20086;-73
2022/06/17 12:10:12;;;;;;;4.80;2.00;;;;;;;31.64;24.93;101556.50;5065394;28;20052;-74
2022/06/17 12:12:39;;;;;;;6.38;2.13;;;;;;;31.57;25.34;101552.97;5048140;28;20056;-70